sensor_id;sensor_type;location;lat;lon;timestamp;P1;durP1;ratioP1;P2;durP2;ratioP2
29422;SDS011;16399;51.686;8.684;2023-01-04T00:01:04;6.53;;;1.05;;
29422;SDS011;16399;51.686;8.684;2023-01-04T00:04:08;4.25;;;1.00;;
29422;SDS011;16399;51.686;8.684;2023-01-04T00:07:10;3.90;;;0.80;;
29422;SDS011;16399;51.686;8.684;2023-01-04T00:10:12;7.25;;;1.25;;
29422;SDS011;16399;51.686;8.684;2023-01-04T00:13:15;2.85;;;1.00;;
29422;SDS011;16399;51.686;8.684;2023-01-04T00:16:21;6.00;;;0.90;;
29422;SDS011;16399;51.686;8.684;2023-01-04T00:19:24;2.22;;;0.80;;
29422;SDS011;16399;51.686;8.684;2023-01-04T00:22:26;3.27;;;0.98;;
29422;SDS011;16399;51.686;8.684;2023-01-04T00:25:29;3.70;;;0.80;;
29422;SDS011;16399;51.686;8.684;2023-01-04T00:28:31;6.50;;;2.17;;
29422;SDS011;16399;51.686;8.684;2023-01-04T00:31:34;5.90;;;1.32;;
29422;SDS011;16399;51.686;8.684;2023-01-04T00:34:36;4.15;;;0.90;;
29422;SDS011;16399;51.686;8.684;2023-01-04T00:37:38;3.90;;;1.00;;
29422;SDS011;16399;51.686;8.684;2023-01-04T00:40:41;5.00;;;1.40;;
29422;SDS011;16399;51.686;8.684;2023-01-04T00:43:43;3.75;;;0.98;;
29422;SDS011;16399;51.686;8.684;2023-01-04T00:46:45;1.98;;;0.80;;
29422;SDS011;16399;51.686;8.684;2023-01-04T00:49:48;2.75;;;0.78;;
29422;SDS011;16399;51.686;8.684;2023-01-04T00:52:50;5.75;;;1.20;;
29422;SDS011;16399;51.686;8.684;2023-01-04T00:55:57;4.42;;;1.00;;
29422;SDS011;16399;51.686;8.684;2023-01-04T00:58:59;2.02;;;0.88;;
29422;SDS011;16399;51.686;8.684;2023-01-04T01:02:02;5.08;;;1.05;;
29422;SDS011;16399;51.686;8.684;2023-01-04T01:05:05;3.35;;;1.02;;
29422;SDS011;16399;51.686;8.684;2023-01-04T01:08:09;4.42;;;0.88;;
29422;SDS011;16399;51.686;8.684;2023-01-04T01:11:27;3.33;;;0.90;;
29422;SDS011;16399;51.686;8.684;2023-01-04T01:14:29;8.35;;;1.00;;
29422;SDS011;16399;51.686;8.684;2023-01-04T01:17:32;5.00;;;1.00;;
29422;SDS011;16399;51.686;8.684;2023-01-04T01:20:44;4.65;;;1.25;;
29422;SDS011;16399;51.686;8.684;2023-01-04T01:23:47;6.78;;;1.07;;
29422;SDS011;16399;51.686;8.684;2023-01-04T01:26:50;4.97;;;0.88;;
29422;SDS011;16399;51.686;8.684;2023-01-04T01:29:52;6.62;;;1.40;;
29422;SDS011;16399;51.686;8.684;2023-01-04T01:32:54;2.83;;;0.80;;
29422;SDS011;16399;51.686;8.684;2023-01-04T01:36:00;6.00;;;0.88;;
29422;SDS011;16399;51.686;8.684;2023-01-04T01:39:04;4.70;;;1.00;;
29422;SDS011;16399;51.686;8.684;2023-01-04T01:42:10;4.37;;;1.07;;
29422;SDS011;16399;51.686;8.684;2023-01-04T01:48:32;4.12;;;0.88;;
29422;SDS011;16399;51.686;8.684;2023-01-04T01:51:34;6.15;;;0.95;;
29422;SDS011;16399;51.686;8.684;2023-01-04T01:54:48;6.22;;;1.50;;
29422;SDS011;16399;51.686;8.684;2023-01-04T01:57:51;4.70;;;0.90;;
29422;SDS011;16399;51.686;8.684;2023-01-04T02:00:55;4.25;;;1.10;;
29422;SDS011;16399;51.686;8.684;2023-01-04T02:03:58;5.95;;;1.85;;
29422;SDS011;16399;51.686;8.684;2023-01-04T02:07:01;7.15;;;1.27;;
29422;SDS011;16399;51.686;8.684;2023-01-04T02:10:05;4.08;;;1.07;;
29422;SDS011;16399;51.686;8.684;2023-01-04T02:13:08;6.22;;;1.47;;
29422;SDS011;16399;51.686;8.684;2023-01-04T02:16:14;2.08;;;0.95;;
29422;SDS011;16399;51.686;8.684;2023-01-04T02:29:55;3.45;;;1.02;;
29422;SDS011;16399;51.686;8.684;2023-01-04T02:33:12;4.87;;;1.00;;
29422;SDS011;16399;51.686;8.684;2023-01-04T02:36:25;3.30;;;1.00;;
29422;SDS011;16399;51.686;8.684;2023-01-04T02:39:32;3.90;;;0.90;;
29422;SDS011;16399;51.686;8.684;2023-01-04T02:42:54;4.37;;;1.22;;
29422;SDS011;16399;51.686;8.684;2023-01-04T02:46:16;3.10;;;0.80;;
29422;SDS011;16399;51.686;8.684;2023-01-04T02:49:20;5.17;;;1.20;;
29422;SDS011;16399;51.686;8.684;2023-01-04T02:52:40;2.77;;;0.88;;
29422;SDS011;16399;51.686;8.684;2023-01-04T02:55:46;2.80;;;0.90;;
29422;SDS011;16399;51.686;8.684;2023-01-04T03:02:23;2.65;;;1.00;;
29422;SDS011;16399;51.686;8.684;2023-01-04T03:05:47;2.62;;;1.20;;
29422;SDS011;16399;51.686;8.684;2023-01-04T03:12:40;3.37;;;0.80;;
29422;SDS011;16399;51.686;8.684;2023-01-04T03:15:45;4.53;;;1.00;;
29422;SDS011;16399;51.686;8.684;2023-01-04T03:18:53;4.60;;;1.12;;
29422;SDS011;16399;51.686;8.684;2023-01-04T03:21:57;4.42;;;1.12;;
29422;SDS011;16399;51.686;8.684;2023-01-04T03:25:00;6.42;;;1.17;;
29422;SDS011;16399;51.686;8.684;2023-01-04T03:28:21;3.62;;;0.90;;
29422;SDS011;16399;51.686;8.684;2023-01-04T03:31:55;6.67;;;1.67;;
29422;SDS011;16399;51.686;8.684;2023-01-04T03:35:08;5.90;;;0.90;;
29422;SDS011;16399;51.686;8.684;2023-01-04T03:38:29;4.83;;;0.90;;
29422;SDS011;16399;51.686;8.684;2023-01-04T03:41:58;3.20;;;0.90;;
29422;SDS011;16399;51.686;8.684;2023-01-04T03:45:26;4.25;;;0.90;;
29422;SDS011;16399;51.686;8.684;2023-01-04T03:48:59;3.47;;;0.80;;
29422;SDS011;16399;51.686;8.684;2023-01-04T03:52:09;3.90;;;0.75;;
29422;SDS011;16399;51.686;8.684;2023-01-04T03:55:14;4.05;;;1.05;;
29422;SDS011;16399;51.686;8.684;2023-01-04T03:58:18;5.83;;;1.00;;
29422;SDS011;16399;51.686;8.684;2023-01-04T04:01:22;2.75;;;0.85;;
29422;SDS011;16399;51.686;8.684;2023-01-04T04:04:26;4.62;;;1.02;;
29422;SDS011;16399;51.686;8.684;2023-01-04T04:07:46;2.60;;;0.70;;
29422;SDS011;16399;51.686;8.684;2023-01-04T04:11:06;3.90;;;0.90;;
29422;SDS011;16399;51.686;8.684;2023-01-04T04:14:27;3.20;;;0.70;;
29422;SDS011;16399;51.686;8.684;2023-01-04T04:17:29;3.55;;;0.88;;
29422;SDS011;16399;51.686;8.684;2023-01-04T04:20:31;2.77;;;0.72;;
29422;SDS011;16399;51.686;8.684;2023-01-04T04:23:34;2.27;;;0.75;;
29422;SDS011;16399;51.686;8.684;2023-01-04T04:26:36;3.62;;;0.88;;
29422;SDS011;16399;51.686;8.684;2023-01-04T04:29:38;1.80;;;0.90;;
29422;SDS011;16399;51.686;8.684;2023-01-04T04:32:40;2.72;;;0.60;;
29422;SDS011;16399;51.686;8.684;2023-01-04T04:35:43;1.20;;;0.60;;
29422;SDS011;16399;51.686;8.684;2023-01-04T04:38:45;2.67;;;0.82;;
29422;SDS011;16399;51.686;8.684;2023-01-04T04:41:47;1.87;;;0.80;;
29422;SDS011;16399;51.686;8.684;2023-01-04T04:44:49;2.70;;;0.75;;
29422;SDS011;16399;51.686;8.684;2023-01-04T04:47:52;2.25;;;0.60;;
29422;SDS011;16399;51.686;8.684;2023-01-04T04:50:54;1.62;;;0.60;;
29422;SDS011;16399;51.686;8.684;2023-01-04T04:53:56;3.58;;;0.50;;
29422;SDS011;16399;51.686;8.684;2023-01-04T04:56:59;2.17;;;0.60;;
29422;SDS011;16399;51.686;8.684;2023-01-04T05:00:01;2.15;;;0.60;;
29422;SDS011;16399;51.686;8.684;2023-01-04T05:03:03;2.20;;;0.78;;
29422;SDS011;16399;51.686;8.684;2023-01-04T05:06:06;0.98;;;0.60;;
29422;SDS011;16399;51.686;8.684;2023-01-04T05:09:09;1.52;;;0.50;;
29422;SDS011;16399;51.686;8.684;2023-01-04T05:12:12;2.83;;;0.68;;
29422;SDS011;16399;51.686;8.684;2023-01-04T05:15:33;1.05;;;0.42;;
29422;SDS011;16399;51.686;8.684;2023-01-04T05:18:40;1.57;;;0.47;;
29422;SDS011;16399;51.686;8.684;2023-01-04T05:21:42;2.98;;;0.68;;
29422;SDS011;16399;51.686;8.684;2023-01-04T05:24:44;0.90;;;0.40;;
29422;SDS011;16399;51.686;8.684;2023-01-04T05:27:47;4.62;;;0.55;;
29422;SDS011;16399;51.686;8.684;2023-01-04T05:30:49;4.28;;;0.57;;
29422;SDS011;16399;51.686;8.684;2023-01-04T05:36:55;2.37;;;0.50;;
29422;SDS011;16399;51.686;8.684;2023-01-04T05:39:58;1.57;;;0.50;;
29422;SDS011;16399;51.686;8.684;2023-01-04T05:43:00;1.37;;;0.40;;
29422;SDS011;16399;51.686;8.684;2023-01-04T05:46:02;1.55;;;0.40;;
29422;SDS011;16399;51.686;8.684;2023-01-04T05:49:05;1.30;;;0.40;;
29422;SDS011;16399;51.686;8.684;2023-01-04T05:52:07;1.30;;;0.40;;
29422;SDS011;16399;51.686;8.684;2023-01-04T05:55:09;1.07;;;0.47;;
29422;SDS011;16399;51.686;8.684;2023-01-04T05:58:12;1.17;;;0.42;;
29422;SDS011;16399;51.686;8.684;2023-01-04T06:01:14;0.93;;;0.33;;
29422;SDS011;16399;51.686;8.684;2023-01-04T06:04:16;1.60;;;0.40;;
29422;SDS011;16399;51.686;8.684;2023-01-04T06:07:20;2.08;;;0.47;;
29422;SDS011;16399;51.686;8.684;2023-01-04T06:10:22;0.85;;;0.45;;
29422;SDS011;16399;51.686;8.684;2023-01-04T06:13:24;3.90;;;0.60;;
29422;SDS011;16399;51.686;8.684;2023-01-04T06:16:27;1.12;;;0.50;;
29422;SDS011;16399;51.686;8.684;2023-01-04T06:19:29;0.55;;;0.37;;
29422;SDS011;16399;51.686;8.684;2023-01-04T06:22:31;1.27;;;0.55;;
29422;SDS011;16399;51.686;8.684;2023-01-04T06:25:34;1.00;;;0.40;;
29422;SDS011;16399;51.686;8.684;2023-01-04T06:28:36;1.87;;;0.60;;
29422;SDS011;16399;51.686;8.684;2023-01-04T06:31:38;0.95;;;0.35;;
29422;SDS011;16399;51.686;8.684;2023-01-04T06:34:41;1.20;;;0.40;;
29422;SDS011;16399;51.686;8.684;2023-01-04T06:37:43;1.30;;;0.47;;
29422;SDS011;16399;51.686;8.684;2023-01-04T06:40:45;1.12;;;0.30;;
29422;SDS011;16399;51.686;8.684;2023-01-04T06:43:47;0.93;;;0.40;;
29422;SDS011;16399;51.686;8.684;2023-01-04T06:46:50;0.72;;;0.30;;
29422;SDS011;16399;51.686;8.684;2023-01-04T06:49:52;1.60;;;0.50;;
29422;SDS011;16399;51.686;8.684;2023-01-04T06:52:54;0.50;;;0.30;;
29422;SDS011;16399;51.686;8.684;2023-01-04T06:55:57;0.47;;;0.30;;
29422;SDS011;16399;51.686;8.684;2023-01-04T06:58:59;1.15;;;0.50;;
29422;SDS011;16399;51.686;8.684;2023-01-04T07:02:01;0.88;;;0.40;;
29422;SDS011;16399;51.686;8.684;2023-01-04T07:05:04;0.95;;;0.50;;
29422;SDS011;16399;51.686;8.684;2023-01-04T07:08:06;0.88;;;0.40;;
29422;SDS011;16399;51.686;8.684;2023-01-04T07:11:08;0.93;;;0.35;;
29422;SDS011;16399;51.686;8.684;2023-01-04T07:14:11;0.68;;;0.40;;
29422;SDS011;16399;51.686;8.684;2023-01-04T07:17:13;1.02;;;0.42;;
29422;SDS011;16399;51.686;8.684;2023-01-04T07:20:16;0.80;;;0.30;;
29422;SDS011;16399;51.686;8.684;2023-01-04T07:23:18;1.52;;;0.47;;
29422;SDS011;16399;51.686;8.684;2023-01-04T07:26:20;1.07;;;0.40;;
29422;SDS011;16399;51.686;8.684;2023-01-04T07:29:23;1.47;;;0.47;;
29422;SDS011;16399;51.686;8.684;2023-01-04T07:32:25;0.75;;;0.30;;
29422;SDS011;16399;51.686;8.684;2023-01-04T07:35:27;0.90;;;0.30;;
29422;SDS011;16399;51.686;8.684;2023-01-04T07:38:29;2.27;;;0.40;;
29422;SDS011;16399;51.686;8.684;2023-01-04T07:41:33;0.93;;;0.40;;
29422;SDS011;16399;51.686;8.684;2023-01-04T07:44:35;1.40;;;0.35;;
29422;SDS011;16399;51.686;8.684;2023-01-04T07:47:38;1.02;;;0.30;;
29422;SDS011;16399;51.686;8.684;2023-01-04T07:50:40;0.60;;;0.35;;
29422;SDS011;16399;51.686;8.684;2023-01-04T07:53:42;1.12;;;0.40;;
29422;SDS011;16399;51.686;8.684;2023-01-04T07:56:45;0.95;;;0.23;;
29422;SDS011;16399;51.686;8.684;2023-01-04T07:59:48;0.55;;;0.40;;
29422;SDS011;16399;51.686;8.684;2023-01-04T08:02:51;0.75;;;0.35;;
29422;SDS011;16399;51.686;8.684;2023-01-04T08:05:53;0.47;;;0.28;;
29422;SDS011;16399;51.686;8.684;2023-01-04T08:08:56;0.78;;;0.33;;
29422;SDS011;16399;51.686;8.684;2023-01-04T08:11:59;0.60;;;0.30;;
29422;SDS011;16399;51.686;8.684;2023-01-04T08:15:02;0.70;;;0.30;;
29422;SDS011;16399;51.686;8.684;2023-01-04T08:18:04;0.45;;;0.30;;
29422;SDS011;16399;51.686;8.684;2023-01-04T08:21:07;1.75;;;0.40;;
29422;SDS011;16399;51.686;8.684;2023-01-04T08:24:10;1.72;;;0.40;;
29422;SDS011;16399;51.686;8.684;2023-01-04T08:27:13;0.27;;;0.20;;
29422;SDS011;16399;51.686;8.684;2023-01-04T08:30:16;0.98;;;0.40;;
29422;SDS011;16399;51.686;8.684;2023-01-04T08:33:18;0.23;;;0.20;;
29422;SDS011;16399;51.686;8.684;2023-01-04T08:36:21;0.75;;;0.37;;
29422;SDS011;16399;51.686;8.684;2023-01-04T08:39:25;1.12;;;0.40;;
29422;SDS011;16399;51.686;8.684;2023-01-04T08:42:29;0.33;;;0.30;;
29422;SDS011;16399;51.686;8.684;2023-01-04T08:45:31;0.72;;;0.30;;
29422;SDS011;16399;51.686;8.684;2023-01-04T08:48:34;0.62;;;0.30;;
29422;SDS011;16399;51.686;8.684;2023-01-04T08:51:36;3.37;;;0.53;;
29422;SDS011;16399;51.686;8.684;2023-01-04T08:54:39;2.98;;;0.35;;
29422;SDS011;16399;51.686;8.684;2023-01-04T08:57:41;2.72;;;0.40;;
29422;SDS011;16399;51.686;8.684;2023-01-04T09:00:45;2.12;;;0.30;;
29422;SDS011;16399;51.686;8.684;2023-01-04T09:03:47;0.28;;;0.23;;
29422;SDS011;16399;51.686;8.684;2023-01-04T09:06:49;0.72;;;0.30;;
29422;SDS011;16399;51.686;8.684;2023-01-04T09:09:51;0.72;;;0.65;;
29422;SDS011;16399;51.686;8.684;2023-01-04T09:12:54;1.85;;;0.40;;
29422;SDS011;16399;51.686;8.684;2023-01-04T09:15:58;0.60;;;0.20;;
29422;SDS011;16399;51.686;8.684;2023-01-04T09:19:01;0.62;;;0.30;;
29422;SDS011;16399;51.686;8.684;2023-01-04T09:22:04;2.50;;;0.35;;
29422;SDS011;16399;51.686;8.684;2023-01-04T09:25:06;2.20;;;0.40;;
29422;SDS011;16399;51.686;8.684;2023-01-04T09:28:09;1.82;;;0.50;;
29422;SDS011;16399;51.686;8.684;2023-01-04T09:31:17;1.07;;;0.42;;
29422;SDS011;16399;51.686;8.684;2023-01-04T09:34:16;0.45;;;0.30;;
29422;SDS011;16399;51.686;8.684;2023-01-04T09:37:19;1.35;;;0.23;;
29422;SDS011;16399;51.686;8.684;2023-01-04T09:40:23;1.92;;;0.53;;
29422;SDS011;16399;51.686;8.684;2023-01-04T09:43:31;2.17;;;0.60;;
29422;SDS011;16399;51.686;8.684;2023-01-04T09:46:45;0.42;;;0.33;;
29422;SDS011;16399;51.686;8.684;2023-01-04T09:54:04;0.40;;;0.20;;
29422;SDS011;16399;51.686;8.684;2023-01-04T09:56:39;0.93;;;0.30;;
29422;SDS011;16399;51.686;8.684;2023-01-04T09:59:43;0.33;;;0.20;;
29422;SDS011;16399;51.686;8.684;2023-01-04T10:02:51;0.78;;;0.30;;
29422;SDS011;16399;51.686;8.684;2023-01-04T10:06:12;0.28;;;0.23;;
29422;SDS011;16399;51.686;8.684;2023-01-04T10:09:13;0.20;;;0.20;;
29422;SDS011;16399;51.686;8.684;2023-01-04T10:12:26;1.52;;;0.40;;
29422;SDS011;16399;51.686;8.684;2023-01-04T10:15:28;1.10;;;0.30;;
29422;SDS011;16399;51.686;8.684;2023-01-04T10:21:45;0.40;;;0.28;;
29422;SDS011;16399;51.686;8.684;2023-01-04T10:25:40;1.77;;;0.40;;
29422;SDS011;16399;51.686;8.684;2023-01-04T10:28:13;2.05;;;0.30;;
29422;SDS011;16399;51.686;8.684;2023-01-04T10:34:23;0.30;;;0.28;;
29422;SDS011;16399;51.686;8.684;2023-01-04T10:37:32;0.45;;;0.20;;
29422;SDS011;16399;51.686;8.684;2023-01-04T10:40:37;0.42;;;0.20;;
29422;SDS011;16399;51.686;8.684;2023-01-04T10:43:54;1.05;;;0.13;;
29422;SDS011;16399;51.686;8.684;2023-01-04T10:47:06;0.20;;;0.20;;
29422;SDS011;16399;51.686;8.684;2023-01-04T10:50:20;0.35;;;0.30;;
29422;SDS011;16399;51.686;8.684;2023-01-04T10:53:40;1.67;;;0.30;;
29422;SDS011;16399;51.686;8.684;2023-01-04T10:56:50;0.15;;;0.15;;
29422;SDS011;16399;51.686;8.684;2023-01-04T11:00:04;1.22;;;0.30;;
29422;SDS011;16399;51.686;8.684;2023-01-04T11:03:13;0.30;;;0.30;;
29422;SDS011;16399;51.686;8.684;2023-01-04T11:09:37;0.15;;;0.15;;
29422;SDS011;16399;51.686;8.684;2023-01-04T11:12:42;0.15;;;0.15;;
29422;SDS011;16399;51.686;8.684;2023-01-04T11:15:45;0.85;;;0.20;;
29422;SDS011;16399;51.686;8.684;2023-01-04T11:18:47;0.13;;;0.13;;
29422;SDS011;16399;51.686;8.684;2023-01-04T11:21:53;0.10;;;0.10;;
29422;SDS011;16399;51.686;8.684;2023-01-04T11:25:04;0.23;;;0.20;;
29422;SDS011;16399;51.686;8.684;2023-01-04T11:28:17;1.47;;;0.25;;
29422;SDS011;16399;51.686;8.684;2023-01-04T11:31:38;0.27;;;0.20;;
29422;SDS011;16399;51.686;8.684;2023-01-04T11:34:53;0.47;;;0.13;;
29422;SDS011;16399;51.686;8.684;2023-01-04T11:38:05;0.47;;;0.20;;
29422;SDS011;16399;51.686;8.684;2023-01-04T11:41:14;0.17;;;0.15;;
29422;SDS011;16399;51.686;8.684;2023-01-04T11:44:17;0.10;;;0.10;;
29422;SDS011;16399;51.686;8.684;2023-01-04T11:47:20;0.45;;;0.30;;
29422;SDS011;16399;51.686;8.684;2023-01-04T11:50:32;0.10;;;0.10;;
29422;SDS011;16399;51.686;8.684;2023-01-04T11:53:41;0.20;;;0.20;;
29422;SDS011;16399;51.686;8.684;2023-01-04T11:57:03;0.10;;;0.10;;
29422;SDS011;16399;51.686;8.684;2023-01-04T12:00:15;0.53;;;0.20;;
29422;SDS011;16399;51.686;8.684;2023-01-04T12:03:20;0.57;;;0.20;;
29422;SDS011;16399;51.686;8.684;2023-01-04T12:06:40;0.20;;;0.20;;
29422;SDS011;16399;51.686;8.684;2023-01-04T12:09:59;0.33;;;0.20;;
29422;SDS011;16399;51.686;8.684;2023-01-04T12:13:04;0.33;;;0.20;;
29422;SDS011;16399;51.686;8.684;2023-01-04T12:16:18;0.40;;;0.25;;
29422;SDS011;16399;51.686;8.684;2023-01-04T12:19:36;0.28;;;0.20;;
29422;SDS011;16399;51.686;8.684;2023-01-04T12:25:43;0.72;;;0.20;;
29422;SDS011;16399;51.686;8.684;2023-01-04T12:28:52;0.40;;;0.28;;
29422;SDS011;16399;51.686;8.684;2023-01-04T12:36:01;1.02;;;0.10;;
29422;SDS011;16399;51.686;8.684;2023-01-04T12:38:56;1.20;;;0.17;;
29422;SDS011;16399;51.686;8.684;2023-01-04T12:45:11;0.10;;;0.10;;
29422;SDS011;16399;51.686;8.684;2023-01-04T12:48:31;0.10;;;0.10;;
29422;SDS011;16399;51.686;8.684;2023-01-04T12:51:47;0.20;;;0.20;;
29422;SDS011;16399;51.686;8.684;2023-01-04T12:54:53;0.65;;;0.20;;
29422;SDS011;16399;51.686;8.684;2023-01-04T12:58:01;0.33;;;0.20;;
29422;SDS011;16399;51.686;8.684;2023-01-04T13:07:40;0.25;;;0.20;;
29422;SDS011;16399;51.686;8.684;2023-01-04T13:10:37;0.10;;;0.10;;
29422;SDS011;16399;51.686;8.684;2023-01-04T13:13:53;2.12;;;0.23;;
29422;SDS011;16399;51.686;8.684;2023-01-04T13:20:15;0.98;;;0.40;;
29422;SDS011;16399;51.686;8.684;2023-01-04T13:23:19;0.82;;;0.30;;
29422;SDS011;16399;51.686;8.684;2023-01-04T13:26:26;1.27;;;0.23;;
29422;SDS011;16399;51.686;8.684;2023-01-04T13:29:34;0.90;;;0.30;;
29422;SDS011;16399;51.686;8.684;2023-01-04T13:32:37;0.47;;;0.20;;
29422;SDS011;16399;51.686;8.684;2023-01-04T13:35:39;1.95;;;0.20;;
29422;SDS011;16399;51.686;8.684;2023-01-04T13:38:42;0.17;;;0.17;;
29422;SDS011;16399;51.686;8.684;2023-01-04T13:41:44;0.35;;;0.13;;
29422;SDS011;16399;51.686;8.684;2023-01-04T13:44:59;0.20;;;0.10;;
29422;SDS011;16399;51.686;8.684;2023-01-04T13:48:18;1.22;;;0.20;;
29422;SDS011;16399;51.686;8.684;2023-01-04T13:51:26;0.10;;;0.10;;
29422;SDS011;16399;51.686;8.684;2023-01-04T13:54:32;0.20;;;0.20;;
29422;SDS011;16399;51.686;8.684;2023-01-04T13:57:34;0.10;;;0.10;;
29422;SDS011;16399;51.686;8.684;2023-01-04T14:03:57;0.37;;;0.20;;
29422;SDS011;16399;51.686;8.684;2023-01-04T14:06:59;1.05;;;0.20;;
29422;SDS011;16399;51.686;8.684;2023-01-04T14:10:02;0.10;;;0.10;;
29422;SDS011;16399;51.686;8.684;2023-01-04T14:13:04;0.40;;;0.40;;
29422;SDS011;16399;51.686;8.684;2023-01-04T14:16:12;0.10;;;0.10;;
29422;SDS011;16399;51.686;8.684;2023-01-04T14:22:55;0.40;;;0.10;;
29422;SDS011;16399;51.686;8.684;2023-01-04T14:25:59;0.20;;;0.10;;
29422;SDS011;16399;51.686;8.684;2023-01-04T14:29:48;0.17;;;0.17;;
29422;SDS011;16399;51.686;8.684;2023-01-04T14:32:22;0.50;;;0.28;;
29422;SDS011;16399;51.686;8.684;2023-01-04T14:35:25;1.30;;;0.30;;
29422;SDS011;16399;51.686;8.684;2023-01-04T14:38:28;1.80;;;0.20;;
29422;SDS011;16399;51.686;8.684;2023-01-04T14:41:33;0.93;;;0.45;;
29422;SDS011;16399;51.686;8.684;2023-01-04T14:44:37;0.70;;;0.35;;
29422;SDS011;16399;51.686;8.684;2023-01-04T14:47:40;3.55;;;0.25;;
29422;SDS011;16399;51.686;8.684;2023-01-04T14:50:43;0.13;;;0.13;;
29422;SDS011;16399;51.686;8.684;2023-01-04T14:53:45;0.40;;;0.20;;
29422;SDS011;16399;51.686;8.684;2023-01-04T14:56:48;0.42;;;0.23;;
29422;SDS011;16399;51.686;8.684;2023-01-04T14:59:51;1.55;;;0.20;;
29422;SDS011;16399;51.686;8.684;2023-01-04T15:02:53;1.70;;;0.20;;
29422;SDS011;16399;51.686;8.684;2023-01-04T15:05:55;0.20;;;0.20;;
29422;SDS011;16399;51.686;8.684;2023-01-04T15:08:58;0.20;;;0.20;;
29422;SDS011;16399;51.686;8.684;2023-01-04T15:12:01;0.65;;;0.30;;
29422;SDS011;16399;51.686;8.684;2023-01-04T15:15:03;0.28;;;0.28;;
29422;SDS011;16399;51.686;8.684;2023-01-04T15:18:06;0.23;;;0.23;;
29422;SDS011;16399;51.686;8.684;2023-01-04T15:21:08;0.62;;;0.40;;
29422;SDS011;16399;51.686;8.684;2023-01-04T15:24:12;2.35;;;1.10;;
29422;SDS011;16399;51.686;8.684;2023-01-04T15:27:14;2.10;;;1.07;;
29422;SDS011;16399;51.686;8.684;2023-01-04T15:30:16;3.45;;;1.05;;
29422;SDS011;16399;51.686;8.684;2023-01-04T15:33:19;1.30;;;0.60;;
29422;SDS011;16399;51.686;8.684;2023-01-04T15:36:21;0.95;;;0.62;;
29422;SDS011;16399;51.686;8.684;2023-01-04T15:39:23;1.27;;;0.75;;
29422;SDS011;16399;51.686;8.684;2023-01-04T15:42:26;1.47;;;0.75;;
29422;SDS011;16399;51.686;8.684;2023-01-04T15:45:46;1.70;;;0.80;;
29422;SDS011;16399;51.686;8.684;2023-01-04T15:48:48;2.20;;;0.68;;
29422;SDS011;16399;51.686;8.684;2023-01-04T15:51:51;0.80;;;0.50;;
29422;SDS011;16399;51.686;8.684;2023-01-04T15:54:53;1.70;;;0.82;;
29422;SDS011;16399;51.686;8.684;2023-01-04T15:57:55;5.00;;;1.60;;
29422;SDS011;16399;51.686;8.684;2023-01-04T16:00:57;3.20;;;0.80;;
29422;SDS011;16399;51.686;8.684;2023-01-04T16:04:00;0.80;;;0.50;;
29422;SDS011;16399;51.686;8.684;2023-01-04T16:07:03;1.30;;;0.70;;
29422;SDS011;16399;51.686;8.684;2023-01-04T16:10:05;2.08;;;0.70;;
29422;SDS011;16399;51.686;8.684;2023-01-04T16:13:08;0.88;;;0.40;;
29422;SDS011;16399;51.686;8.684;2023-01-04T16:16:10;1.02;;;0.40;;
29422;SDS011;16399;51.686;8.684;2023-01-04T16:19:13;3.37;;;0.88;;
29422;SDS011;16399;51.686;8.684;2023-01-04T16:22:15;1.57;;;0.80;;
29422;SDS011;16399;51.686;8.684;2023-01-04T16:25:17;1.47;;;0.50;;
29422;SDS011;16399;51.686;8.684;2023-01-04T16:28:20;1.32;;;0.68;;
29422;SDS011;16399;51.686;8.684;2023-01-04T16:31:22;3.65;;;0.75;;
29422;SDS011;16399;51.686;8.684;2023-01-04T16:34:25;3.47;;;1.00;;
29422;SDS011;16399;51.686;8.684;2023-01-04T16:37:27;4.85;;;1.00;;
29422;SDS011;16399;51.686;8.684;2023-01-04T16:40:30;3.17;;;0.70;;
29422;SDS011;16399;51.686;8.684;2023-01-04T16:43:34;2.90;;;0.95;;
29422;SDS011;16399;51.686;8.684;2023-01-04T16:46:38;3.85;;;0.80;;
29422;SDS011;16399;51.686;8.684;2023-01-04T16:49:42;1.70;;;0.50;;
29422;SDS011;16399;51.686;8.684;2023-01-04T16:52:44;1.55;;;0.80;;
29422;SDS011;16399;51.686;8.684;2023-01-04T16:55:46;3.27;;;0.95;;
29422;SDS011;16399;51.686;8.684;2023-01-04T16:58:50;1.60;;;0.85;;
29422;SDS011;16399;51.686;8.684;2023-01-04T17:01:52;6.87;;;3.37;;
29422;SDS011;16399;51.686;8.684;2023-01-04T17:04:55;4.08;;;1.90;;
29422;SDS011;16399;51.686;8.684;2023-01-04T17:07:59;16.70;;;9.93;;
29422;SDS011;16399;51.686;8.684;2023-01-04T17:11:05;5.33;;;1.90;;
29422;SDS011;16399;51.686;8.684;2023-01-04T17:14:08;6.78;;;3.22;;
29422;SDS011;16399;51.686;8.684;2023-01-04T17:20:15;6.65;;;1.30;;
29422;SDS011;16399;51.686;8.684;2023-01-04T17:23:18;7.47;;;1.30;;
29422;SDS011;16399;51.686;8.684;2023-01-04T17:26:21;4.25;;;1.70;;
29422;SDS011;16399;51.686;8.684;2023-01-04T17:29:28;7.05;;;1.57;;
29422;SDS011;16399;51.686;8.684;2023-01-04T17:32:31;6.47;;;2.00;;
29422;SDS011;16399;51.686;8.684;2023-01-04T17:35:37;5.30;;;1.67;;
29422;SDS011;16399;51.686;8.684;2023-01-04T17:38:39;7.80;;;1.90;;
29422;SDS011;16399;51.686;8.684;2023-01-04T17:41:42;6.62;;;1.70;;
29422;SDS011;16399;51.686;8.684;2023-01-04T17:44:45;8.25;;;2.40;;
29422;SDS011;16399;51.686;8.684;2023-01-04T17:47:48;6.33;;;1.85;;
29422;SDS011;16399;51.686;8.684;2023-01-04T17:50:51;5.35;;;1.70;;
29422;SDS011;16399;51.686;8.684;2023-01-04T17:53:55;11.25;;;3.33;;
29422;SDS011;16399;51.686;8.684;2023-01-04T17:56:59;11.15;;;2.87;;
29422;SDS011;16399;51.686;8.684;2023-01-04T18:00:01;5.85;;;1.70;;
29422;SDS011;16399;51.686;8.684;2023-01-04T18:03:05;6.17;;;1.90;;
29422;SDS011;16399;51.686;8.684;2023-01-04T18:06:08;9.10;;;2.25;;
29422;SDS011;16399;51.686;8.684;2023-01-04T18:09:11;6.10;;;1.85;;
29422;SDS011;16399;51.686;8.684;2023-01-04T18:12:15;11.93;;;1.80;;
29422;SDS011;16399;51.686;8.684;2023-01-04T18:15:17;8.15;;;1.62;;
29422;SDS011;16399;51.686;8.684;2023-01-04T18:18:19;6.67;;;1.65;;
29422;SDS011;16399;51.686;8.684;2023-01-04T18:21:28;6.75;;;1.80;;
29422;SDS011;16399;51.686;8.684;2023-01-04T18:24:27;9.65;;;2.33;;
29422;SDS011;16399;51.686;8.684;2023-01-04T18:27:30;6.60;;;1.60;;
29422;SDS011;16399;51.686;8.684;2023-01-04T18:30:36;7.45;;;2.30;;
29422;SDS011;16399;51.686;8.684;2023-01-04T18:33:38;7.25;;;1.50;;
29422;SDS011;16399;51.686;8.684;2023-01-04T18:39:45;7.22;;;1.67;;
29422;SDS011;16399;51.686;8.684;2023-01-04T18:42:48;6.35;;;1.60;;
29422;SDS011;16399;51.686;8.684;2023-01-04T18:45:50;7.33;;;1.55;;
29422;SDS011;16399;51.686;8.684;2023-01-04T18:48:54;6.37;;;1.90;;
29422;SDS011;16399;51.686;8.684;2023-01-04T18:51:58;12.90;;;4.78;;
29422;SDS011;16399;51.686;8.684;2023-01-04T18:55:00;9.35;;;2.83;;
29422;SDS011;16399;51.686;8.684;2023-01-04T18:58:03;8.83;;;2.47;;
29422;SDS011;16399;51.686;8.684;2023-01-04T19:01:07;8.83;;;1.90;;
29422;SDS011;16399;51.686;8.684;2023-01-04T19:04:10;7.00;;;1.70;;
29422;SDS011;16399;51.686;8.684;2023-01-04T19:07:15;12.53;;;1.90;;
29422;SDS011;16399;51.686;8.684;2023-01-04T19:10:17;7.60;;;2.17;;
29422;SDS011;16399;51.686;8.684;2023-01-04T19:13:20;9.73;;;1.90;;
29422;SDS011;16399;51.686;8.684;2023-01-04T19:16:22;6.67;;;1.55;;
29422;SDS011;16399;51.686;8.684;2023-01-04T19:19:26;6.13;;;1.70;;
29422;SDS011;16399;51.686;8.684;2023-01-04T19:22:28;9.38;;;2.47;;
29422;SDS011;16399;51.686;8.684;2023-01-04T19:25:30;9.53;;;1.85;;
29422;SDS011;16399;51.686;8.684;2023-01-04T19:28:33;10.53;;;2.15;;
29422;SDS011;16399;51.686;8.684;2023-01-04T19:31:35;8.45;;;1.72;;
29422;SDS011;16399;51.686;8.684;2023-01-04T19:34:37;11.43;;;2.20;;
29422;SDS011;16399;51.686;8.684;2023-01-04T19:37:40;10.60;;;2.20;;
29422;SDS011;16399;51.686;8.684;2023-01-04T19:40:42;10.25;;;2.10;;
29422;SDS011;16399;51.686;8.684;2023-01-04T19:43:44;9.80;;;2.98;;
29422;SDS011;16399;51.686;8.684;2023-01-04T19:46:46;11.50;;;2.40;;